Terminal Aerodrome Forecast
Issued by NWS Charleston, SC

Home | Current Version | Previous Version | Text Only | Print | Product List | Glossary On
Versions: 1 2 3 4 5 6 7 8 9 10 11 12 13 14 15 16 17 18 19 20 21 22 23 24 25 26 27 28 29 30 31 32 33 34 35 36 37 38 39
000
FTUS42 KCHS 241732
TAFSAV
TAF
KSAV 241732Z 2418/2518 20013G21KT 3SM +TSRA OVC035CB
      TEMPO 2419/2422 3/4SM +TSRA OVC025CB
     FM242200 20011G22KT 3SM TSRA BKN030CB OVC040
     FM250300 22009G19KT 6SM SHRA BKN040 BKN090
     FM250900 22009KT P6SM BKN200
     FM251500 26013G20KT P6SM SCT200=

USA.gov is the U.S. government's official web portal to all federal, state and local government web resources and services.